createdAt,value
2022-12-14T00:15:14.931Z,33.2
2022-12-14T00:45:16.920Z,33.8
2022-12-14T01:17:18.893Z,33.8
2022-12-14T01:49:20.890Z,35.4
2022-12-14T02:19:22.600Z,34.9
2022-12-14T02:49:24.409Z,34.9
2022-12-14T03:21:26.301Z,35.4
2022-12-14T03:52:28.177Z,34.9
2022-12-14T04:29:30.436Z,33.8
2022-12-14T05:03:32.322Z,35.4
2022-12-14T05:34:34.186Z,35.4
2022-12-14T06:04:36.106Z,34.9
2022-12-14T06:34:37.955Z,34.9
2022-12-14T07:05:39.929Z,34.9
2022-12-14T07:36:42.246Z,35.4
2022-12-14T08:06:43.918Z,34.9
2022-12-14T08:48:46.470Z,35.9
2022-12-14T09:18:48.404Z,36.5
2022-12-14T09:49:50.533Z,36.5
2022-12-14T10:25:52.650Z,35.9
2022-12-14T10:55:54.451Z,36.5
2022-12-14T11:26:56.489Z,37.6
2022-12-14T11:57:58.694Z,37
2022-12-14T12:28:00.488Z,38.1
2022-12-14T13:00:02.504Z,38.1
2022-12-14T13:30:04.241Z,38.6
2022-12-14T14:04:06.477Z,38.1
2022-12-14T14:34:08.468Z,37.6
2022-12-14T14:35:08.510Z,38.6
2022-12-14T14:37:08.704Z,37.6
2022-12-14T14:38:08.782Z,38.6
2022-12-14T15:14:10.980Z,36.5
2022-12-14T15:44:13.063Z,36.5
2022-12-14T16:15:15.000Z,37
2022-12-14T16:55:17.360Z,37
2022-12-14T17:29:19.240Z,37
2022-12-14T18:06:21.363Z,35.9
2022-12-14T18:37:23.330Z,35.4
2022-12-14T19:07:25.178Z,36.5
2022-12-14T19:44:27.529Z,35.9
2022-12-14T20:14:29.466Z,35.9
2022-12-14T20:44:31.268Z,34.9
2022-12-14T21:14:33.239Z,35.4
2022-12-14T21:44:34.998Z,35.9
2022-12-14T22:14:37.091Z,34.9
2022-12-14T22:45:38.929Z,34.3
2022-12-14T23:16:40.965Z,34.9
2022-12-14T23:46:42.756Z,33.8
